Time;durP1;ratioP1;P1;durP2;ratioP2;P2;SDS_P1;SDS_P2;PMS_P1;PMS_P2;Temp;Humidity;BMP_temperature;BMP_pressure;BME280_temperature;BME280_humidity;BME280_pressure;Samples;Min_cycle;Max_cycle;Signal;HPM_P1;HPM_P2
2023/09/10 00:00:22;;;;;;;;;;;17.00;99.90;;;;;;4936356;29;19931;-92
2023/09/10 00:02:48;;;;;;;;;;;17.00;99.90;;;;;;4933228;28;19933;-91
2023/09/10 00:05:13;;;;;;;;;;;17.00;99.90;;;;;;4937846;29;19927;-92
2023/09/10 00:07:39;;;;;;;;;;;17.00;99.90;;;;;;4936922;29;19927;-91
2023/09/10 00:10:05;;;;;;;;;;;17.00;99.90;;;;;;4937054;29;19930;-92
2023/09/10 00:12:30;;;;;;;;;;;16.90;99.90;;;;;;4935939;28;19972;-92
2023/09/10 00:14:56;;;;;;;;;;;16.90;99.90;;;;;;4940486;29;20120;-91
2023/09/10 00:17:21;;;;;;;;;;;16.90;99.90;;;;;;4937858;28;19931;-94
2023/09/10 00:19:47;;;;;;;;;;;16.90;99.90;;;;;;4933343;28;19933;-91
2023/09/10 00:22:13;;;;;;;;;;;16.80;99.90;;;;;;4940582;29;19935;-92
2023/09/10 00:24:38;;;;;;;;;;;16.80;99.90;;;;;;4938080;28;19931;-91
2023/09/10 00:27:04;;;;;;;;;;;16.70;99.90;;;;;;4944801;28;19926;-93
2023/09/10 00:29:29;;;;;;;;;;;16.70;99.90;;;;;;4943368;29;19934;-91
2023/09/10 00:31:55;;;;;;;;;;;16.70;99.90;;;;;;4941583;29;19996;-91
2023/09/10 00:34:20;;;;;;;;;;;16.70;99.90;;;;;;4937087;29;19957;-91
2023/09/10 00:36:46;;;;;;;;;;;16.70;99.90;;;;;;4944401;29;19991;-92
2023/09/10 00:39:11;;;;;;;;;;;16.70;99.90;;;;;;4947055;28;19927;-92
2023/09/10 00:41:37;;;;;;;;;;;16.70;99.90;;;;;;4940795;28;19927;-91
2023/09/10 00:44:03;;;;;;;;;;;16.70;99.90;;;;;;4936197;29;19981;-92
2023/09/10 00:46:29;;;;;;;;;;;16.70;99.90;;;;;;4933868;29;20041;-93
2023/09/10 00:48:55;;;;;;;;;;;16.70;99.90;;;;;;5024879;28;19927;-93
2023/09/10 00:51:21;;;;;;;;;;;16.70;99.90;;;;;;4935004;29;20377;-92
2023/09/10 00:53:46;;;;;;;;;;;16.70;99.90;;;;;;4934760;28;19935;-92
2023/09/10 00:56:12;;;;;;;;;;;16.70;99.90;;;;;;4937082;29;19926;-92
2023/09/10 00:58:38;;;;;;;;;;;16.70;99.90;;;;;;4937357;29;19937;-93
2023/09/10 01:01:04;;;;;;;;;;;16.70;99.90;;;;;;4957313;28;19937;-92
2023/09/10 01:03:30;;;;;;;;;;;16.70;99.90;;;;;;4937967;29;19934;-91
2023/09/10 01:05:56;;;;;;;;;;;16.80;99.90;;;;;;4941106;28;19927;-92
2023/09/10 01:08:21;;;;;;;;;;;16.70;99.90;;;;;;4946165;28;19927;-91
2023/09/10 01:11:08;;;;;;;;;;;16.70;99.90;;;;;;4946968;28;20354;-92
2023/09/10 01:13:38;;;;;;;;;;;16.70;99.90;;;;;;4939277;28;20562;-92
2023/09/10 01:16:07;;;;;;;;;;;16.70;99.90;;;;;;4933264;29;19934;-92
2023/09/10 01:18:42;;;;;;;;;;;16.60;99.90;;;;;;4943589;29;19927;-91
2023/09/10 01:21:23;;;;;;;;;;;16.60;99.90;;;;;;4935565;29;19931;-92
2023/09/10 01:24:12;;;;;;;;;;;16.60;99.90;;;;;;4941641;28;19938;-93
2023/09/10 01:26:39;;;;;;;;;;;16.60;99.90;;;;;;4936140;28;20819;-91
2023/09/10 01:29:04;;;;;;;;;;;16.60;99.90;;;;;;4935226;29;19949;-92
2023/09/10 01:31:31;;;;;;;;;;;16.50;99.90;;;;;;4938812;29;19958;-93
2023/09/10 01:34:01;;;;;;;;;;;16.50;99.90;;;;;;4934800;29;19937;-92
2023/09/10 01:36:40;;;;;;;;;;;16.50;99.90;;;;;;4936668;29;19927;-91
2023/09/10 01:39:36;;;;;;;;;;;16.50;99.90;;;;;;4936526;29;19931;-92
2023/09/10 01:42:02;;;;;;;;;;;16.40;99.90;;;;;;4935289;29;19931;-91
2023/09/10 01:44:31;;;;;;;;;;;16.50;99.90;;;;;;4936929;29;19931;-91
2023/09/10 01:46:57;;;;;;;;;;;16.40;99.90;;;;;;4935641;29;19973;-92
2023/09/10 01:49:22;;;;;;;;;;;16.40;99.90;;;;;;4937311;29;19986;-92
2023/09/10 01:51:48;;;;;;;;;;;16.40;99.90;;;;;;4937039;29;19937;-93
2023/09/10 01:54:14;;;;;;;;;;;16.40;99.90;;;;;;4936480;29;19959;-93
2023/09/10 01:56:39;;;;;;;;;;;16.40;99.90;;;;;;4937914;29;19927;-93
2023/09/10 01:59:05;;;;;;;;;;;16.40;99.90;;;;;;4982181;28;19930;-92
2023/09/10 02:01:30;;;;;;;;;;;16.40;99.90;;;;;;4936508;29;21915;-93
2023/09/10 02:03:56;;;;;;;;;;;16.40;99.90;;;;;;4950561;28;19927;-92
2023/09/10 02:06:21;;;;;;;;;;;16.40;99.90;;;;;;4939492;29;19934;-91
2023/09/10 02:08:47;;;;;;;;;;;16.40;99.90;;;;;;4937876;29;20037;-91
2023/09/10 02:11:12;;;;;;;;;;;16.30;99.90;;;;;;4938172;29;19961;-92
2023/09/10 02:13:38;;;;;;;;;;;16.30;99.90;;;;;;4949226;28;19927;-91
2023/09/10 02:16:04;;;;;;;;;;;16.30;99.90;;;;;;4935430;29;19949;-91
2023/09/10 02:18:29;;;;;;;;;;;16.30;99.90;;;;;;4933407;29;20003;-92
2023/09/10 02:20:55;;;;;;;;;;;16.20;99.90;;;;;;4934903;29;20016;-91
2023/09/10 02:23:21;;;;;;;;;;;16.30;99.90;;;;;;4938028;28;19942;-92
2023/09/10 02:25:46;;;;;;;;;;;16.20;99.90;;;;;;4934984;28;20535;-92
2023/09/10 02:28:12;;;;;;;;;;;16.20;99.90;;;;;;4936016;29;19937;-91
2023/09/10 02:30:37;;;;;;;;;;;16.20;99.90;;;;;;4934310;28;19965;-93
2023/09/10 02:33:03;;;;;;;;;;;16.20;99.90;;;;;;4934994;29;20013;-92
2023/09/10 02:35:29;;;;;;;;;;;16.20;99.90;;;;;;4935552;28;19930;-93
2023/09/10 02:37:54;;;;;;;;;;;16.30;99.90;;;;;;4935526;28;19934;-92
2023/09/10 02:40:20;;;;;;;;;;;16.30;99.90;;;;;;4935296;29;19931;-92
2023/09/10 02:42:45;;;;;;;;;;;16.30;99.90;;;;;;4950644;28;19941;-93
2023/09/10 02:45:11;;;;;;;;;;;16.30;99.90;;;;;;4920233;28;19974;-92
2023/09/10 02:47:37;;;;;;;;;;;16.30;99.90;;;;;;4938301;29;19931;-92
2023/09/10 02:50:03;;;;;;;;;;;16.30;99.90;;;;;;4937917;29;19934;-92
2023/09/10 02:52:30;;;;;;;;;;;16.30;99.90;;;;;;4921377;28;20457;-93
2023/09/10 02:54:56;;;;;;;;;;;16.30;99.90;;;;;;4937141;29;19927;-92
2023/09/10 02:57:22;;;;;;;;;;;16.30;99.90;;;;;;4940072;29;19933;-92
2023/09/10 02:59:47;;;;;;;;;;;16.20;99.90;;;;;;4938705;29;19961;-92
2023/09/10 03:02:13;;;;;;;;;;;16.20;99.90;;;;;;4926390;28;19942;-91
2023/09/10 03:04:39;;;;;;;;;;;16.20;99.90;;;;;;4938097;29;19933;-92
2023/09/10 03:07:04;;;;;;;;;;;16.20;99.90;;;;;;4922776;28;20100;-94
2023/09/10 03:09:30;;;;;;;;;;;16.10;99.90;;;;;;4937520;28;19927;-91
2023/09/10 03:12:15;;;;;;;;;;;16.10;99.90;;;;;;4936489;29;19937;-93
2023/09/10 03:14:41;;;;;;;;;;;16.10;99.90;;;;;;4926785;28;19927;-92
2023/09/10 03:17:06;;;;;;;;;;;16.10;99.90;;;;;;4937403;29;19934;-92
2023/09/10 03:19:32;;;;;;;;;;;16.10;99.90;;;;;;4941456;28;19934;-93
2023/09/10 03:21:57;;;;;;;;;;;16.20;99.90;;;;;;4937257;29;19998;-93
2023/09/10 03:24:23;;;;;;;;;;;16.20;99.90;;;;;;4938647;29;19930;-92
2023/09/10 03:26:48;;;;;;;;;;;16.20;99.90;;;;;;4940993;28;20389;-93
2023/09/10 03:29:14;;;;;;;;;;;16.10;99.90;;;;;;4938785;28;19927;-93
2023/09/10 03:31:39;;;;;;;;;;;16.10;99.90;;;;;;4935801;28;19927;-92
2023/09/10 03:34:05;;;;;;;;;;;16.10;99.90;;;;;;4930721;28;19974;-92
2023/09/10 03:36:31;;;;;;;;;;;16.10;99.90;;;;;;4941015;29;19934;-92
2023/09/10 03:38:56;;;;;;;;;;;16.00;99.90;;;;;;4937809;28;20453;-93
2023/09/10 03:41:22;;;;;;;;;;;16.10;99.90;;;;;;4937801;28;19931;-93
2023/09/10 03:43:47;;;;;;;;;;;16.00;99.90;;;;;;4941121;28;19978;-93
2023/09/10 03:46:13;;;;;;;;;;;16.00;99.90;;;;;;4937380;28;19927;-93
2023/09/10 03:48:38;;;;;;;;;;;16.00;99.90;;;;;;4955148;28;19931;-92
2023/09/10 03:51:04;;;;;;;;;;;16.00;99.90;;;;;;4937393;28;19927;-92
2023/09/10 03:53:29;;;;;;;;;;;16.00;99.90;;;;;;4922474;29;19992;-93
2023/09/10 03:55:55;;;;;;;;;;;16.00;99.90;;;;;;4936669;29;19931;-92
2023/09/10 03:58:20;;;;;;;;;;;16.00;99.90;;;;;;4939423;29;19961;-93
2023/09/10 04:00:46;;;;;;;;;;;16.00;99.90;;;;;;4934413;29;20407;-92
2023/09/10 04:03:11;;;;;;;;;;;15.90;99.90;;;;;;4934675;29;19928;-94
2023/09/10 04:05:37;;;;;;;;;;;15.90;99.90;;;;;;4951934;28;19946;-93
2023/09/10 04:08:03;;;;;;;;;;;15.90;99.90;;;;;;4941630;29;19927;-93
2023/09/10 04:10:29;;;;;;;;;;;15.90;99.90;;;;;;4938258;28;20372;-93
2023/09/10 04:12:54;;;;;;;;;;;15.90;99.90;;;;;;4935807;29;20293;-93
2023/09/10 04:15:20;;;;;;;;;;;15.90;99.90;;;;;;4938887;29;19993;-93
2023/09/10 04:17:46;;;;;;;;;;;15.90;99.90;;;;;;4935698;29;19934;-93
2023/09/10 04:20:11;;;;;;;;;;;15.80;99.90;;;;;;4938931;29;19927;-93
2023/09/10 04:22:37;;;;;;;;;;;15.80;99.90;;;;;;4950055;28;19931;-93
2023/09/10 04:25:03;;;;;;;;;;;15.80;99.90;;;;;;4938806;29;20061;-94
2023/09/10 04:27:28;;;;;;;;;;;15.70;99.90;;;;;;4958279;28;19952;-92
2023/09/10 04:29:54;;;;;;;;;;;15.70;99.90;;;;;;4945699;28;19923;-94
2023/09/10 04:32:20;;;;;;;;;;;15.70;99.90;;;;;;4946293;29;19938;-92
2023/09/10 04:34:45;;;;;;;;;;;15.70;99.90;;;;;;4944114;28;19931;-93
2023/09/10 04:37:11;;;;;;;;;;;15.70;99.90;;;;;;4956857;28;20463;-93
2023/09/10 04:39:37;;;;;;;;;;;15.70;99.90;;;;;;4949812;29;19930;-93
2023/09/10 04:42:03;;;;;;;;;;;15.70;99.90;;;;;;4948925;29;19922;-93
2023/09/10 04:44:28;;;;;;;;;;;15.70;99.90;;;;;;4939100;28;20275;-93
2023/09/10 04:46:54;;;;;;;;;;;15.70;99.90;;;;;;4937762;29;20348;-92
2023/09/10 04:49:20;;;;;;;;;;;15.60;99.90;;;;;;4944469;29;19926;-92
2023/09/10 04:51:45;;;;;;;;;;;15.60;99.90;;;;;;4934736;28;19927;-93
2023/09/10 04:54:11;;;;;;;;;;;15.60;99.90;;;;;;4935042;29;19927;-93
2023/09/10 04:56:36;;;;;;;;;;;15.60;99.90;;;;;;4936685;29;21036;-93
2023/09/10 04:59:02;;;;;;;;;;;15.50;99.90;;;;;;4940857;28;19927;-93
2023/09/10 05:01:28;;;;;;;;;;;15.50;99.90;;;;;;4938323;28;19934;-94
2023/09/10 05:03:53;;;;;;;;;;;15.60;99.90;;;;;;4920018;28;20005;-93
2023/09/10 05:06:21;;;;;;;;;;;15.60;99.90;;;;;;4942327;29;19931;-93
2023/09/10 05:08:47;;;;;;;;;;;15.60;99.90;;;;;;4935827;28;20744;-92
2023/09/10 05:11:14;;;;;;;;;;;15.50;99.90;;;;;;4937384;28;19966;-93
2023/09/10 05:13:40;;;;;;;;;;;15.60;99.90;;;;;;4939101;29;19927;-93
2023/09/10 05:16:05;;;;;;;;;;;15.60;99.90;;;;;;4934652;29;19938;-93
2023/09/10 05:18:31;;;;;;;;;;;15.60;99.90;;;;;;4939903;29;20364;-92
2023/09/10 05:20:56;;;;;;;;;;;15.70;99.90;;;;;;4937441;28;19965;-94
2023/09/10 05:23:22;;;;;;;;;;;15.70;99.90;;;;;;4938790;29;19931;-95
2023/09/10 05:25:48;;;;;;;;;;;15.80;99.90;;;;;;4931118;29;19935;-94
2023/09/10 05:28:14;;;;;;;;;;;15.80;99.90;;;;;;4935567;28;19928;-94
2023/09/10 05:30:40;;;;;;;;;;;15.80;99.90;;;;;;4937763;29;19942;-94
2023/09/10 05:33:05;;;;;;;;;;;15.80;99.90;;;;;;4939506;29;19933;-94
2023/09/10 05:35:31;;;;;;;;;;;15.90;99.90;;;;;;4917851;28;19931;-95
2023/09/10 05:37:57;;;;;;;;;;;15.90;99.90;;;;;;4943939;29;19989;-93
2023/09/10 05:40:22;;;;;;;;;;;15.90;99.90;;;;;;4937174;29;20049;-94
2023/09/10 05:42:48;;;;;;;;;;;15.90;99.90;;;;;;4952932;28;19949;-94
2023/09/10 05:45:13;;;;;;;;;;;16.00;99.90;;;;;;4937748;29;19937;-94
2023/09/10 05:47:39;;;;;;;;;;;16.00;99.90;;;;;;4936836;28;19937;-93
2023/09/10 05:50:05;;;;;;;;;;;16.00;99.90;;;;;;4936182;29;19931;-94
2023/09/10 05:52:30;;;;;;;;;;;16.10;99.90;;;;;;4933179;28;19931;-94
2023/09/10 05:54:56;;;;;;;;;;;16.10;99.90;;;;;;4938099;29;19972;-95
2023/09/10 05:57:21;;;;;;;;;;;16.20;99.90;;;;;;4919167;29;19937;-94
2023/09/10 05:59:47;;;;;;;;;;;16.30;99.90;;;;;;4935157;29;19931;-94
2023/09/10 06:02:13;;;;;;;;;;;16.40;99.90;;;;;;4936836;29;19931;-94
2023/09/10 06:04:38;;;;;;;;;;;16.40;99.90;;;;;;4936041;29;19934;-94
2023/09/10 06:07:04;;;;;;;;;;;16.50;99.90;;;;;;4936906;29;19934;-94
2023/09/10 06:09:30;;;;;;;;;;;16.60;99.90;;;;;;4937142;29;19933;-94
2023/09/10 06:11:56;;;;;;;;;;;16.60;99.90;;;;;;5023298;28;19953;-94
2023/09/10 06:14:22;;;;;;;;;;;16.70;99.90;;;;;;4952664;28;19930;-94
2023/09/10 06:16:47;;;;;;;;;;;16.80;99.90;;;;;;4935398;29;19954;-92
2023/09/10 06:19:14;;;;;;;;;;;16.90;99.90;;;;;;4934448;29;19927;-92
2023/09/10 06:21:40;;;;;;;;;;;16.90;99.90;;;;;;4941096;28;19949;-91
2023/09/10 06:24:06;;;;;;;;;;;17.00;99.90;;;;;;4943121;29;20393;-93
2023/09/10 06:26:32;;;;;;;;;;;17.10;99.90;;;;;;4941927;28;19927;-92
2023/09/10 06:28:58;;;;;;;;;;;17.20;99.90;;;;;;4925076;29;19935;-92
2023/09/10 06:31:23;;;;;;;;;;;17.30;99.90;;;;;;4940587;28;19934;-92
2023/09/10 06:33:49;;;;;;;;;;;17.40;99.90;;;;;;4949484;28;19941;-92
2023/09/10 06:36:15;;;;;;;;;;;17.50;99.90;;;;;;4924398;29;19931;-92
2023/09/10 06:38:47;;;;;;;;;;;17.60;99.90;;;;;;4989840;28;19926;-91
2023/09/10 06:41:16;;;;;;;;;;;17.70;99.90;;;;;;4940055;29;20782;-92
2023/09/10 06:43:42;;;;;;;;;;;17.80;99.90;;;;;;4944900;28;19942;-92
2023/09/10 06:46:07;;;;;;;;;;;17.90;99.90;;;;;;4937353;28;19935;-92
2023/09/10 06:48:33;;;;;;;;;;;18.00;99.90;;;;;;5018402;28;19934;-91
2023/09/10 06:51:00;;;;;;;;;;;18.10;99.90;;;;;;4934818;28;20026;-93
2023/09/10 06:53:26;;;;;;;;;;;18.20;99.90;;;;;;4937702;29;19934;-92
2023/09/10 06:55:52;;;;;;;;;;;18.30;99.90;;;;;;4952588;28;19977;-93
2023/09/10 06:58:18;;;;;;;;;;;18.40;99.90;;;;;;4961932;28;19925;-93
2023/09/10 07:00:44;;;;;;;;;;;18.50;99.90;;;;;;4947768;28;19926;-92
2023/09/10 07:03:11;;;;;;;;;;;18.60;99.90;;;;;;4934579;29;19927;-92
2023/09/10 07:05:40;;;;;;;;;;;18.70;99.90;;;;;;4939903;29;20017;-93
2023/09/10 07:08:07;;;;;;;;;;;18.80;99.90;;;;;;4935132;29;19950;-93
2023/09/10 07:10:33;;;;;;;;;;;19.00;99.90;;;;;;4939959;29;19933;-92
2023/09/10 07:12:59;;;;;;;;;;;19.30;99.90;;;;;;4940960;29;19927;-93
2023/09/10 07:15:24;;;;;;;;;;;19.80;99.90;;;;;;4942118;29;20076;-94
2023/09/10 07:17:50;;;;;;;;;;;20.30;99.90;;;;;;4943315;29;19927;-94
2023/09/10 07:20:16;;;;;;;;;;;20.90;99.90;;;;;;4933508;29;19927;-93
2023/09/10 07:22:42;;;;;;;;;;;21.40;99.90;;;;;;4938894;29;20362;-93
2023/09/10 07:25:08;;;;;;;;;;;21.90;99.90;;;;;;4938660;29;19930;-94
2023/09/10 07:27:33;;;;;;;;;;;22.50;99.90;;;;;;4926450;29;19982;-93
2023/09/10 07:29:59;;;;;;;;;;;22.90;99.90;;;;;;4941294;29;19931;-94
2023/09/10 07:32:24;;;;;;;;;;;23.30;99.90;;;;;;4961982;28;19927;-94
2023/09/10 07:34:50;;;;;;;;;;;23.70;99.90;;;;;;4941377;28;20017;-91
2023/09/10 07:37:16;;;;;;;;;;;24.00;99.90;;;;;;4924750;28;19991;-92
2023/09/10 07:39:41;;;;;;;;;;;24.40;99.90;;;;;;4940876;28;19933;-92
2023/09/10 07:42:07;;;;;;;;;;;24.60;99.90;;;;;;4945654;28;19954;-92
2023/09/10 07:44:32;;;;;;;;;;;25.00;99.90;;;;;;4943134;28;20018;-92
2023/09/10 07:46:58;;;;;;;;;;;25.30;99.90;;;;;;5013284;28;19929;-92
2023/09/10 07:49:23;;;;;;;;;;;25.40;99.90;;;;;;4941172;29;19931;-93
2023/09/10 07:51:49;;;;;;;;;;;25.60;99.90;;;;;;4931050;29;20023;-92
2023/09/10 07:54:14;;;;;;;;;;;25.80;99.90;;;;;;4936434;29;19966;-93
2023/09/10 07:56:40;;;;;;;;;;;25.90;99.90;;;;;;4937794;29;19927;-93
2023/09/10 07:59:08;;;;;;;;;;;26.10;99.90;;;;;;4919687;28;20003;-93
2023/09/10 08:01:33;;;;;;;;;;;26.30;99.90;;;;;;4938949;28;20740;-92
2023/09/10 08:03:59;;;;;;;;;;;26.40;99.90;;;;;;4931887;28;19935;-92
2023/09/10 08:06:24;;;;;;;;;;;26.60;99.90;;;;;;4936777;28;19981;-92
2023/09/10 08:08:50;;;;;;;;;;;26.70;99.90;;;;;;4926721;29;19970;-93
2023/09/10 08:11:16;;;;;;;;;;;27.00;99.90;;;;;;4921125;28;20289;-94
2023/09/10 08:13:42;;;;;;;;;;;27.10;99.90;;;;;;4938158;29;19934;-92
2023/09/10 08:16:13;;;;;;;;;;;27.30;99.90;;;;;;4929092;29;19931;-90
2023/09/10 08:18:39;;;;;;;;;;;27.40;99.90;;;;;;4937859;28;19966;-93
2023/09/10 08:21:04;;;;;;;;;;;27.50;99.90;;;;;;4923402;29;20278;-93
2023/09/10 08:23:30;;;;;;;;;;;27.50;99.90;;;;;;4939986;29;19977;-93
2023/09/10 08:25:55;;;;;;;;;;;27.60;99.90;;;;;;4934863;29;19933;-92
2023/09/10 08:28:21;;;;;;;;;;;27.80;99.90;;;;;;4940033;28;19953;-90
2023/09/10 08:30:47;;;;;;;;;;;27.90;99.90;;;;;;4939108;29;19942;-85
2023/09/10 08:33:12;;;;;;;;;;;28.00;99.90;;;;;;4938284;29;19930;-85
2023/09/10 08:35:45;;;;;;;;;;;28.10;99.90;;;;;;4936044;29;19927;-84
2023/09/10 08:38:11;;;;;;;;;;;28.20;99.90;;;;;;4933388;28;19938;-85
2023/09/10 08:40:58;;;;;;;;;;;28.20;99.90;;;;;;4938085;29;19927;-84
2023/09/10 08:43:30;;;;;;;;;;;28.20;99.90;;;;;;4931007;29;20848;-85
2023/09/10 08:45:55;;;;;;;;;;;28.40;99.90;;;;;;4937041;28;19996;-84
2023/09/10 08:48:21;;;;;;;;;;;28.50;99.90;;;;;;4938663;29;19931;-84
2023/09/10 08:50:48;;;;;;;;;;;28.50;99.90;;;;;;4936827;29;19937;-85
2023/09/10 08:53:16;;;;;;;;;;;28.60;99.90;;;;;;4937974;29;19927;-85
2023/09/10 08:55:42;;;;;;;;;;;28.70;99.90;;;;;;4937521;29;19946;-84
2023/09/10 08:58:09;;;;;;;;;;;28.80;99.90;;;;;;4945276;28;20393;-85
2023/09/10 09:00:35;;;;;;;;;;;28.80;99.90;;;;;;4939445;29;19994;-83
2023/09/10 09:03:01;;;;;;;;;;;28.80;99.90;;;;;;4937087;28;19994;-83
2023/09/10 09:05:29;;;;;;;;;;;28.90;99.90;;;;;;4939861;29;19937;-84
2023/09/10 09:07:59;;;;;;;;;;;29.00;99.90;;;;;;4933573;28;19962;-84
2023/09/10 09:10:26;;;;;;;;;;;29.20;99.90;;;;;;4936437;29;19945;-85
2023/09/10 09:12:54;;;;;;;;;;;29.20;99.90;;;;;;4931835;29;19927;-83
2023/09/10 09:15:20;;;;;;;;;;;29.20;99.90;;;;;;4936985;29;19927;-84
2023/09/10 09:17:46;;;;;;;;;;;29.20;99.90;;;;;;4934325;29;19937;-85
2023/09/10 09:20:14;;;;;;;;;;;29.30;99.90;;;;;;4936506;29;19927;-84
2023/09/10 09:22:40;;;;;;;;;;;29.40;99.90;;;;;;4936201;28;19931;-84
2023/09/10 09:25:06;;;;;;;;;;;29.50;99.90;;;;;;4934446;28;19958;-84
2023/09/10 09:27:33;;;;;;;;;;;29.50;99.90;;;;;;4935859;28;19934;-83
2023/09/10 09:29:59;;;;;;;;;;;29.50;99.90;;;;;;4932165;29;19927;-82
2023/09/10 09:32:25;;;;;;;;;;;29.60;99.90;;;;;;4937140;29;19933;-83
2023/09/10 09:34:51;;;;;;;;;;;29.60;99.90;;;;;;4937801;29;19934;-82
2023/09/10 09:37:19;;;;;;;;;;;29.70;99.90;;;;;;4938710;29;20285;-82
2023/09/10 09:39:45;;;;;;;;;;;29.90;99.90;;;;;;4935464;28;19946;-83
2023/09/10 09:42:11;;;;;;;;;;;30.00;99.90;;;;;;4925061;29;20452;-83
2023/09/10 09:44:37;;;;;;;;;;;30.00;99.90;;;;;;4929689;28;19934;-82
2023/09/10 09:47:03;;;;;;;;;;;30.10;99.90;;;;;;4944055;28;19934;-82
2023/09/10 09:49:29;;;;;;;;;;;30.30;99.90;;;;;;4937403;28;19990;-83
2023/09/10 09:51:56;;;;;;;;;;;30.40;99.90;;;;;;4936340;28;19990;-83
2023/09/10 09:54:23;;;;;;;;;;;30.50;99.90;;;;;;4936276;28;20377;-82
2023/09/10 09:56:48;;;;;;;;;;;30.60;99.90;;;;;;4936568;28;19937;-82
2023/09/10 09:59:15;;;;;;;;;;;30.60;99.90;;;;;;4927951;28;20313;-85
2023/09/10 10:01:41;;;;;;;;;;;30.50;99.90;;;;;;4933087;29;19935;-84
2023/09/10 10:04:06;;;;;;;;;;;30.40;99.90;;;;;;4933719;29;19941;-84
2023/09/10 10:06:32;;;;;;;;;;;30.40;99.90;;;;;;4936269;29;19994;-84
2023/09/10 10:09:00;;;;;;;;;;;30.30;99.90;;;;;;4934404;28;19931;-84
2023/09/10 10:11:30;;;;;;;;;;;30.20;99.90;;;;;;4935834;29;19927;-88
2023/09/10 10:14:00;;;;;;;;;;;30.10;99.90;;;;;;4929961;28;19931;-85
2023/09/10 10:16:29;;;;;;;;;;;30.00;99.90;;;;;;4931757;29;19978;-84
2023/09/10 10:18:55;;;;;;;;;;;29.80;99.90;;;;;;4935330;29;19983;-84
2023/09/10 10:21:24;;;;;;;;;;;29.70;99.90;;;;;;4932704;29;19927;-84
2023/09/10 10:23:51;;;;;;;;;;;29.50;99.90;;;;;;4937474;29;19926;-84
2023/09/10 10:26:17;;;;;;;;;;;29.40;99.90;;;;;;4936136;28;19969;-86
2023/09/10 10:28:48;;;;;;;;;;;29.30;99.90;;;;;;4931503;28;19927;-88
2023/09/10 10:31:15;;;;;;;;;;;29.20;99.90;;;;;;4930010;29;19970;-88
2023/09/10 10:33:47;;;;;;;;;;;29.20;99.90;;;;;;4931120;28;19927;-87
2023/09/10 10:36:18;;;;;;;;;;;29.10;99.90;;;;;;4938034;28;20300;-90
2023/09/10 10:38:45;;;;;;;;;;;28.90;99.90;;;;;;4933621;28;19942;-85
2023/09/10 10:41:16;;;;;;;;;;;28.70;99.90;;;;;;4931474;28;19931;-86
2023/09/10 10:43:46;;;;;;;;;;;28.60;99.90;;;;;;4937688;28;19999;-87
2023/09/10 10:46:12;;;;;;;;;;;28.60;99.90;;;;;;4938435;28;19953;-86
2023/09/10 10:48:41;;;;;;;;;;;28.70;99.90;;;;;;4934651;29;19942;-87
2023/09/10 10:51:13;;;;;;;;;;;28.70;99.90;;;;;;4934828;28;19930;-87
2023/09/10 10:53:39;;;;;;;;;;;28.70;99.90;;;;;;4933730;28;19934;-87
2023/09/10 10:56:04;;;;;;;;;;;28.80;99.90;;;;;;4933717;29;19927;-87
2023/09/10 10:58:31;;;;;;;;;;;28.80;99.90;;;;;;4935077;29;19994;-86
2023/09/10 11:00:58;;;;;;;;;;;29.00;99.90;;;;;;4940341;28;19934;-87
2023/09/10 11:03:24;;;;;;;;;;;29.10;99.90;;;;;;4948525;29;19934;-87
2023/09/10 11:05:52;;;;;;;;;;;29.20;99.90;;;;;;4932398;28;19935;-90
2023/09/10 11:08:38;;;;;;;;;;;29.10;99.90;;;;;;4938528;29;19930;-88
2023/09/10 11:11:05;;;;;;;;;;;29.10;99.90;;;;;;4938482;28;20404;-88
2023/09/10 11:13:32;;;;;;;;;;;29.20;99.90;;;;;;4938210;29;19927;-87
2023/09/10 11:16:03;;;;;;;;;;;29.20;99.90;;;;;;4934377;29;19935;-87
2023/09/10 11:18:35;;;;;;;;;;;29.20;99.90;;;;;;4939973;29;19931;-87
2023/09/10 11:21:13;;;;;;;;;;;29.30;99.90;;;;;;4937010;29;19927;-86
2023/09/10 11:23:40;;;;;;;;;;;29.40;99.90;;;;;;4937312;29;19941;-88
2023/09/10 11:26:29;;;;;;;;;;;29.60;99.90;;;;;;4931892;28;19927;-88
2023/09/10 11:28:55;;;;;;;;;;;29.60;99.90;;;;;;4939830;29;19973;-88
2023/09/10 11:34:14;;;;;;;;;;;29.40;99.90;;;;;;4934988;29;19950;-89
2023/09/10 11:36:41;;;;;;;;;;;29.40;99.90;;;;;;4954549;28;19927;-90
2023/09/10 11:39:08;;;;;;;;;;;29.30;99.90;;;;;;4934620;29;19938;-89
2023/09/10 11:41:34;;;;;;;;;;;29.40;99.90;;;;;;4938488;28;19938;-90
2023/09/10 11:44:00;;;;;;;;;;;29.40;99.90;;;;;;4938013;29;19935;-89
2023/09/10 11:46:25;;;;;;;;;;;29.50;99.90;;;;;;4934641;28;19931;-87
2023/09/10 11:48:51;;;;;;;;;;;29.50;99.90;;;;;;4933468;28;19962;-87
2023/09/10 11:51:16;;;;;;;;;;;29.60;99.90;;;;;;4934942;29;19927;-89
2023/09/10 11:53:42;;;;;;;;;;;29.60;99.90;;;;;;4933812;29;19950;-88
2023/09/10 11:56:08;;;;;;;;;;;29.60;99.90;;;;;;4939525;28;19931;-88
2023/09/10 11:58:34;;;;;;;;;;;29.60;99.90;;;;;;4937450;29;19931;-88
2023/09/10 12:01:02;;;;;;;;;;;29.70;99.90;;;;;;4939655;28;19994;-91
2023/09/10 12:03:28;;;;;;;;;;;29.70;99.90;;;;;;4936941;28;19986;-88
2023/09/10 12:05:53;;;;;;;;;;;29.80;99.90;;;;;;4936550;29;19965;-89
2023/09/10 12:08:19;;;;;;;;;;;29.90;99.90;;;;;;4935590;28;19939;-88
2023/09/10 12:10:45;;;;;;;;;;;30.00;99.90;;;;;;4923542;29;19933;-87
2023/09/10 12:13:10;;;;;;;;;;;30.10;99.90;;;;;;4933694;29;19928;-88
2023/09/10 12:15:36;;;;;;;;;;;30.10;99.90;;;;;;4934223;29;20540;-88
2023/09/10 12:18:05;;;;;;;;;;;30.10;99.90;;;;;;4942990;28;19931;-87
2023/09/10 12:20:32;;;;;;;;;;;30.10;99.90;;;;;;4939687;29;19927;-87
2023/09/10 12:22:57;;;;;;;;;;;30.10;99.90;;;;;;4940048;28;20029;-87
2023/09/10 12:25:23;;;;;;;;;;;30.10;99.90;;;;;;4937256;29;20334;-87
2023/09/10 12:27:49;;;;;;;;;;;30.10;99.90;;;;;;4936819;29;20034;-86
2023/09/10 12:30:14;;;;;;;;;;;30.10;99.90;;;;;;4932766;29;19930;-87
2023/09/10 12:32:40;;;;;;;;;;;30.20;99.90;;;;;;4934618;29;20005;-89
2023/09/10 12:35:06;;;;;;;;;;;30.20;99.90;;;;;;4936295;28;19957;-86
2023/09/10 12:37:31;;;;;;;;;;;30.20;99.90;;;;;;4935548;29;19926;-87
2023/09/10 12:39:57;;;;;;;;;;;30.30;99.90;;;;;;4932068;29;19930;-88
2023/09/10 12:42:24;;;;;;;;;;;30.40;99.90;;;;;;4952441;28;19931;-88
2023/09/10 12:44:49;;;;;;;;;;;30.40;99.90;;;;;;4934830;29;19927;-87
2023/09/10 12:47:15;;;;;;;;;;;30.40;99.90;;;;;;4934488;29;19995;-88
2023/09/10 12:49:40;;;;;;;;;;;30.30;99.80;;;;;;4933260;29;19927;-93
2023/09/10 12:52:06;;;;;;;;;;;30.30;98.80;;;;;;4939458;28;19949;-89
2023/09/10 12:54:32;;;;;;;;;;;30.30;99.90;;;;;;4937150;29;19926;-89
2023/09/10 12:57:02;;;;;;;;;;;30.20;98.80;;;;;;4952241;28;19941;-90
2023/09/10 12:59:28;;;;;;;;;;;30.20;99.90;;;;;;4966490;28;19933;-89
2023/09/10 13:01:53;;;;;;;;;;;30.10;99.90;;;;;;4975505;28;19950;-88
2023/09/10 13:04:19;;;;;;;;;;;30.10;99.90;;;;;;4966563;28;19927;-89
2023/09/10 13:06:45;;;;;;;;;;;30.00;99.90;;;;;;4972857;28;20022;-90
2023/09/10 13:09:11;;;;;;;;;;;30.00;99.90;;;;;;4953908;28;20389;-90
2023/09/10 13:11:37;;;;;;;;;;;29.90;99.90;;;;;;4919864;28;19927;-89
2023/09/10 13:14:02;;;;;;;;;;;29.90;99.20;;;;;;4940106;28;19927;-89
2023/09/10 13:16:29;;;;;;;;;;;29.90;99.90;;;;;;4912978;28;19995;-89
2023/09/10 13:18:55;;;;;;;;;;;29.90;99.90;;;;;;4965774;28;19949;-89
2023/09/10 13:21:20;;;;;;;;;;;29.80;99.90;;;;;;4937308;28;20065;-88
2023/09/10 13:23:46;;;;;;;;;;;29.80;99.90;;;;;;4936357;28;19954;-87
2023/09/10 13:26:12;;;;;;;;;;;29.70;99.90;;;;;;4942492;28;19927;-92
2023/09/10 13:28:38;;;;;;;;;;;29.70;99.90;;;;;;4934110;28;19958;-93
2023/09/10 13:31:04;;;;;;;;;;;29.60;99.90;;;;;;4935914;29;20133;-92
2023/09/10 13:33:29;;;;;;;;;;;29.60;99.90;;;;;;4916778;29;19938;-93
2023/09/10 13:35:55;;;;;;;;;;;29.60;99.90;;;;;;4920406;28;19926;-93
2023/09/10 13:38:20;;;;;;;;;;;29.50;99.90;;;;;;4937507;29;19938;-94
2023/09/10 13:40:47;;;;;;;;;;;29.50;99.90;;;;;;4938834;28;20884;-93
2023/09/10 13:43:12;;;;;;;;;;;29.40;99.90;;;;;;4947143;28;19927;-91
2023/09/10 13:45:38;;;;;;;;;;;29.40;99.90;;;;;;4919172;28;19970;-92
2023/09/10 13:48:04;;;;;;;;;;;29.40;99.90;;;;;;4923138;28;19938;-92
2023/09/10 13:50:30;;;;;;;;;;;29.40;99.90;;;;;;4937675;29;19927;-92
2023/09/10 13:52:56;;;;;;;;;;;29.30;99.90;;;;;;4945387;28;19935;-92
2023/09/10 13:55:22;;;;;;;;;;;29.30;99.90;;;;;;4906204;28;19942;-92
2023/09/10 13:57:48;;;;;;;;;;;29.30;99.90;;;;;;4916885;28;19966;-92
2023/09/10 14:00:13;;;;;;;;;;;29.30;99.90;;;;;;4931057;28;19981;-93
2023/09/10 14:02:39;;;;;;;;;;;29.40;99.90;;;;;;4921981;29;19927;-92
2023/09/10 14:05:07;;;;;;;;;;;29.40;99.90;;;;;;4954269;29;19931;-92
2023/09/10 14:07:33;;;;;;;;;;;29.50;99.90;;;;;;4921404;29;19953;-93
2023/09/10 14:09:58;;;;;;;;;;;29.60;99.90;;;;;;4932065;29;19937;-92
2023/09/10 14:12:24;;;;;;;;;;;29.60;99.90;;;;;;4931352;28;19931;-93
2023/09/10 14:14:50;;;;;;;;;;;29.70;99.90;;;;;;4921914;28;19997;-93